Alessandro F — IBVQ — position and weather

sailwx.info

Track history (hours):
 
Tides and Currents Weather Stations Pressure Air Temp Water Temp Dewpoint Dewpoint Depression Visibility Wind Speed Wind Dir Waves Ship Positions

Alessandro F

Last reported at 2017-Mar-01 12:34 UTC. Time now 2017-Mar-01 20:08 UTC.
Position N 45°26' E 012°13'.

Length 100 m; draft 5.7 m.

Type: Ship (hazmat cat B). MMSI: 247046400.

Date/timePositionNaut miles runAvg speedWind from/ knotsBaromVisibWave heightAir tempDewpointWater temp
2017-Mar-01 12:34N 45°26' E 012°13'6 5.7
2017-Mar-01 11:33N 45°21' E 012°16'6 6.1
2017-Mar-01 10:32N 45°21' E 012°25'0 0.3
2017-Mar-01 09:32N 45°20' E 012°25'0 0.0
2017-Mar-01 08:32N 45°20' E 012°25'0 0.0
2017-Mar-01 07:32N 45°20' E 012°25'0 0.0
2017-Mar-01 06:32N 45°20' E 012°25'0 0.1
2017-Mar-01 05:32N 45°20' E 012°25'0 0.1
2017-Mar-01 04:32N 45°20' E 012°25'0 0.0
2017-Mar-01 03:32N 45°20' E 012°25'0 0.0
2017-Mar-01 02:32N 45°20' E 012°25'0 0.1
2017-Mar-01 01:32N 45°20' E 012°25'0 0.0
2017-Mar-01 00:32N 45°20' E 012°25'0 0.0
2017-Feb-28 23:32N 45°20' E 012°25'0 0.0
2017-Feb-28 22:32N 45°20' E 012°25'0 0.0
2017-Feb-28 21:32N 45°20' E 012°25'0 0.0
2017-Feb-28 20:32N 45°20' E 012°25'0 0.0
2017-Feb-28 19:29N 45°20' E 012°25'0 0.0
2017-Feb-28 18:32N 45°20' E 012°25'0 0.0
2017-Feb-28 17:32N 45°20' E 012°25'0 0.0
2017-Feb-28 16:32N 45°20' E 012°25'0 0.0
2017-Feb-28 15:32N 45°20' E 012°25'0 0.0
2017-Feb-28 14:32N 45°20' E 012°25'0 0.0
2017-Feb-28 13:32N 45°20' E 012°25'0 0.0
2017-Feb-28 12:32N 45°20' E 012°25'0 0.1
2017-Feb-28 11:32N 45°20' E 012°25'0 0.1
2017-Feb-28 10:32N 45°20' E 012°25'0 0.0
2017-Feb-28 09:32N 45°20' E 012°25'0 0.1
2017-Feb-28 08:32N 45°20' E 012°25'0 0.0
2017-Feb-28 07:32N 45°20' E 012°25'0 0.0
2017-Feb-28 06:32N 45°20' E 012°25'0 0.0
2017-Feb-28 05:32N 45°20' E 012°25'0 0.1
2017-Feb-28 04:32N 45°20' E 012°25'0 0.0
2017-Feb-28 03:33N 45°20' E 012°25'0 0.0
2017-Feb-28 02:32N 45°20' E 012°25'0 0.0
2017-Feb-28 01:32N 45°20' E 012°25'0 0.0
2017-Feb-28 00:32N 45°20' E 012°25'0 0.0
2017-Feb-27 23:32N 45°20' E 012°25'0 0.0
2017-Feb-27 22:32N 45°20' E 012°25'0 0.0
2017-Feb-27 21:32N 45°20' E 012°25'0 0.0
2017-Feb-27 20:32N 45°20' E 012°25'0 0.0
2017-Feb-27 19:32N 45°20' E 012°25'0 0.0
2017-Feb-27 18:32N 45°20' E 012°25'0 0.0
2017-Feb-27 17:32N 45°20' E 012°25'0 0.1
2017-Feb-27 16:32N 45°20' E 012°25'0 0.0
2017-Feb-27 15:32N 45°20' E 012°25'0 0.1
2017-Feb-27 14:32N 45°20' E 012°25'0 0.0
2017-Feb-27 13:32N 45°20' E 012°25'0 0.0
2017-Feb-27 12:32N 45°20' E 012°25'0 0.0
2017-Feb-27 11:32N 45°20' E 012°25'0 0.0
2017-Feb-27 10:32N 45°20' E 012°25'0 0.0
2017-Feb-27 09:32N 45°20' E 012°25'0 0.0
2017-Feb-27 08:32N 45°20' E 012°25'0 0.0
2017-Feb-27 07:32N 45°20' E 012°25'0 0.0
2017-Feb-27 06:32N 45°20' E 012°25'0 0.0
2017-Feb-27 05:34N 45°20' E 012°25'1 1.4
2017-Feb-27 04:33N 45°19' E 012°26'1211.6
2017-Feb-27 03:34N 45°13' E 012°40'10 9.8
2017-Feb-27 02:34N 45°06' E 012°50'10 9.6
2017-Feb-27 01:33N 44°57' E 012°55'10 9.7
2017-Feb-27 00:33N 44°48' E 013°01'20 9.8
2017-Feb-26 22:29N 44°29' E 013°10'9 9.9
2017-Feb-26 21:33N 44°20' E 013°14'10 9.6
2017-Feb-26 20:32N 44°13' E 013°23'  
2017-Feb-23 14:33N 37°45' E 016°02'95 5.5
2017-Feb-22 21:21N 36°40' E 014°34'910.9
2017-Feb-22 20:33N 36°43' E 014°24'1111.2
2017-Feb-22 19:34N 36°48' E 014°12'1313.0
2017-Feb-22 18:34N 36°54' E 013°57'1313.0
2017-Feb-22 17:33N 36°60' E 013°42'25612.6
2017-Feb-21 21:18N 38°40' E 008°45'  
Track history (hours):
 
Tides and Currents Weather Stations Pressure Air Temp Water Temp Dewpoint Dewpoint Depression Visibility Wind Speed Wind Dir Waves Ship Positions

Alessandro F

Last reported at 2017-Mar-01 12:34 UTC. Time now 2017-Mar-01 20:08 UTC.
Position N 45°26' E 012°13'.

Length 100 m; draft 5.7 m.

Type: Ship (hazmat cat B). MMSI: 247046400.

Date/timePositionNaut miles runAvg speedWind from/ knotsBaromVisibWave heightAir tempDewpointWater temp
2017-Mar-01 12:34N 45°26' E 012°13'6 5.7
2017-Mar-01 11:33N 45°21' E 012°16'6 6.1
2017-Mar-01 10:32N 45°21' E 012°25'0 0.3
2017-Mar-01 09:32N 45°20' E 012°25'0 0.0
2017-Mar-01 08:32N 45°20' E 012°25'0 0.0
2017-Mar-01 07:32N 45°20' E 012°25'0 0.0
2017-Mar-01 06:32N 45°20' E 012°25'0 0.1
2017-Mar-01 05:32N 45°20' E 012°25'0 0.1
2017-Mar-01 04:32N 45°20' E 012°25'0 0.0
2017-Mar-01 03:32N 45°20' E 012°25'0 0.0
2017-Mar-01 02:32N 45°20' E 012°25'0 0.1
2017-Mar-01 01:32N 45°20' E 012°25'0 0.0
2017-Mar-01 00:32N 45°20' E 012°25'0 0.0
2017-Feb-28 23:32N 45°20' E 012°25'0 0.0
2017-Feb-28 22:32N 45°20' E 012°25'0 0.0
2017-Feb-28 21:32N 45°20' E 012°25'0 0.0
2017-Feb-28 20:32N 45°20' E 012°25'0 0.0
2017-Feb-28 19:29N 45°20' E 012°25'0 0.0
2017-Feb-28 18:32N 45°20' E 012°25'0 0.0
2017-Feb-28 17:32N 45°20' E 012°25'0 0.0
2017-Feb-28 16:32N 45°20' E 012°25'0 0.0
2017-Feb-28 15:32N 45°20' E 012°25'0 0.0
2017-Feb-28 14:32N 45°20' E 012°25'0 0.0
2017-Feb-28 13:32N 45°20' E 012°25'0 0.0
2017-Feb-28 12:32N 45°20' E 012°25'0 0.1
2017-Feb-28 11:32N 45°20' E 012°25'0 0.1
2017-Feb-28 10:32N 45°20' E 012°25'0 0.0
2017-Feb-28 09:32N 45°20' E 012°25'0 0.1
2017-Feb-28 08:32N 45°20' E 012°25'0 0.0
2017-Feb-28 07:32N 45°20' E 012°25'0 0.0
2017-Feb-28 06:32N 45°20' E 012°25'0 0.0
2017-Feb-28 05:32N 45°20' E 012°25'0 0.1
2017-Feb-28 04:32N 45°20' E 012°25'0 0.0
2017-Feb-28 03:33N 45°20' E 012°25'0 0.0
2017-Feb-28 02:32N 45°20' E 012°25'0 0.0
2017-Feb-28 01:32N 45°20' E 012°25'0 0.0
2017-Feb-28 00:32N 45°20' E 012°25'0 0.0
2017-Feb-27 23:32N 45°20' E 012°25'0 0.0
2017-Feb-27 22:32N 45°20' E 012°25'0 0.0
2017-Feb-27 21:32N 45°20' E 012°25'0 0.0
2017-Feb-27 20:32N 45°20' E 012°25'0 0.0
2017-Feb-27 19:32N 45°20' E 012°25'0 0.0
2017-Feb-27 18:32N 45°20' E 012°25'0 0.0
2017-Feb-27 17:32N 45°20' E 012°25'0 0.1
2017-Feb-27 16:32N 45°20' E 012°25'0 0.0
2017-Feb-27 15:32N 45°20' E 012°25'0 0.1
2017-Feb-27 14:32N 45°20' E 012°25'0 0.0
2017-Feb-27 13:32N 45°20' E 012°25'0 0.0
2017-Feb-27 12:32N 45°20' E 012°25'0 0.0
2017-Feb-27 11:32N 45°20' E 012°25'0 0.0
2017-Feb-27 10:32N 45°20' E 012°25'0 0.0
2017-Feb-27 09:32N 45°20' E 012°25'0 0.0
2017-Feb-27 08:32N 45°20' E 012°25'0 0.0
2017-Feb-27 07:32N 45°20' E 012°25'0 0.0
2017-Feb-27 06:32N 45°20' E 012°25'0 0.0
2017-Feb-27 05:34N 45°20' E 012°25'1 1.4
2017-Feb-27 04:33N 45°19' E 012°26'1211.6
2017-Feb-27 03:34N 45°13' E 012°40'10 9.8
2017-Feb-27 02:34N 45°06' E 012°50'10 9.6
2017-Feb-27 01:33N 44°57' E 012°55'10 9.7
2017-Feb-27 00:33N 44°48' E 013°01'20 9.8
2017-Feb-26 22:29N 44°29' E 013°10'9 9.9
2017-Feb-26 21:33N 44°20' E 013°14'10 9.6
2017-Feb-26 20:32N 44°13' E 013°23'  
2017-Feb-23 14:33N 37°45' E 016°02'95 5.5
2017-Feb-22 21:21N 36°40' E 014°34'910.9
2017-Feb-22 20:33N 36°43' E 014°24'1111.2
2017-Feb-22 19:34N 36°48' E 014°12'1313.0
2017-Feb-22 18:34N 36°54' E 013°57'1313.0
2017-Feb-22 17:33N 36°60' E 013°42'25612.6
2017-Feb-21 21:18N 38°40' E 008°45'  

Dump ship's entire track history